Time;durP1;ratioP1;P1;durP2;ratioP2;P2;SDS_P1;SDS_P2;PMS_P1;PMS_P2;Temp;Humidity;BMP_temperature;BMP_pressure;BME280_temperature;BME280_humidity;BME280_pressure;Samples;Min_cycle;Max_cycle;Signal;HPM_P1;HPM_P2
2022/06/20 00:03:29;;;;;;;0.20;0.00;;;24.80;99.90;;;;;;21234084;28;21301;-70
2022/06/20 00:13:36;;;;;;;0.20;0.10;;;24.80;99.90;;;;;;21233985;28;20203;-70
2022/06/20 00:23:40;;;;;;;0.20;0.00;;;24.70;99.90;;;;;;21231439;28;20254;-70
2022/06/20 00:33:45;;;;;;;0.20;0.00;;;24.60;99.90;;;;;;21231933;28;20215;-71
2022/06/20 00:43:51;;;;;;;0.20;0.00;;;24.50;99.90;;;;;;21231180;28;20239;-70
2022/06/20 00:54:02;;;;;;;0.20;0.00;;;24.50;99.90;;;;;;21231553;28;20206;-70
2022/06/20 01:04:11;;;;;;;0.20;0.00;;;24.50;99.90;;;;;;21229669;28;20242;-70
2022/06/20 01:14:26;;;;;;;0.20;0.00;;;24.40;99.90;;;;;;21229465;28;20234;-71
2022/06/20 01:24:33;;;;;;;0.20;0.00;;;24.40;99.90;;;;;;21229126;28;20294;-71
2022/06/20 01:34:39;;;;;;;0.20;0.10;;;24.30;99.90;;;;;;21227706;28;20218;-71
2022/06/20 01:44:44;;;;;;;0.20;0.00;;;24.30;99.90;;;;;;21227104;28;20223;-72
2022/06/20 01:54:55;;;;;;;0.20;0.00;;;23.80;99.90;;;;;;21227814;28;20757;-72
2022/06/20 02:04:58;;;;;;;0.20;0.00;;;23.50;99.90;;;;;;21226147;28;20245;-72
2022/06/20 02:15:05;;;;;;;0.20;0.00;;;23.40;99.90;;;;;;21226283;28;20329;-72
2022/06/20 02:25:14;;;;;;;0.20;0.00;;;23.40;99.90;;;;;;21225817;28;20250;-71
2022/06/20 02:35:21;;;;;;;0.20;0.00;;;23.30;99.90;;;;;;21225069;28;20215;-71
2022/06/20 02:45:27;;;;;;;0.20;0.00;;;23.20;99.90;;;;;;21226466;28;20235;-70
2022/06/20 02:55:35;;;;;;;0.20;0.00;;;23.20;99.90;;;;;;21240003;28;20211;-70
2022/06/20 03:05:39;;;;;;;0.20;0.00;;;23.10;99.90;;;;;;21239891;28;20223;-71
2022/06/20 03:15:45;;;;;;;0.20;0.00;;;23.10;99.90;;;;;;21236759;28;20309;-70
2022/06/20 03:25:49;;;;;;;0.20;0.00;;;22.90;99.90;;;;;;21235802;28;20234;-72
2022/06/20 03:35:59;;;;;;;0.20;0.00;;;22.80;99.90;;;;;;21237369;28;20192;-70
2022/06/20 03:46:08;;;;;;;0.20;0.00;;;22.70;99.90;;;;;;21235464;28;20218;-71
2022/06/20 03:56:19;;;;;;;0.20;0.00;;;22.60;99.90;;;;;;21233319;28;20206;-71
2022/06/20 04:06:33;;;;;;;0.20;0.00;;;22.50;99.90;;;;;;21234690;28;20917;-72
2022/06/20 04:16:45;;;;;;;0.20;0.00;;;22.50;99.90;;;;;;21233004;28;20282;-71
2022/06/20 04:26:54;;;;;;;0.20;0.00;;;22.60;99.90;;;;;;21229639;28;20222;-70
2022/06/20 04:37:04;;;;;;;0.20;0.00;;;22.50;99.90;;;;;;21231603;28;20210;-71
2022/06/20 04:47:19;;;;;;;0.20;0.10;;;22.40;99.90;;;;;;21230833;28;20282;-70
2022/06/20 04:57:27;;;;;;;0.20;0.00;;;22.60;99.90;;;;;;21229581;28;20209;-71
2022/06/20 05:07:35;;;;;;;0.20;0.00;;;22.70;99.90;;;;;;21227524;28;20243;-72
2022/06/20 05:17:42;;;;;;;0.20;0.10;;;22.80;99.90;;;;;;21228300;28;20242;-71
2022/06/20 05:27:50;;;;;;;0.20;0.00;;;22.70;99.90;;;;;;21226251;28;20191;-71
2022/06/20 05:37:59;;;;;;;0.20;0.00;;;23.00;99.90;;;;;;21206083;28;20259;-73
2022/06/20 05:48:07;;;;;;;0.20;0.00;;;23.30;99.90;;;;;;21223183;28;20416;-71
2022/06/20 05:58:17;;;;;;;0.20;0.00;;;23.60;99.90;;;;;;21221446;28;20238;-73
2022/06/20 06:08:27;;;;;;;0.20;0.00;;;23.90;99.90;;;;;;21219845;28;20194;-73
2022/06/20 06:18:57;;;;;;;0.20;0.10;;;24.30;99.90;;;;;;21218637;28;20238;-72
2022/06/20 06:29:01;;;;;;;0.20;0.00;;;24.50;99.90;;;;;;21236154;28;20190;-70
2022/06/20 06:39:13;;;;;;;0.20;0.10;;;25.00;99.90;;;;;;21236905;28;20276;-71
2022/06/20 06:49:29;;;;;;;0.20;0.10;;;25.70;99.90;;;;;;21234197;28;20219;-70
2022/06/20 06:59:41;;;;;;;0.20;0.00;;;25.90;99.90;;;;;;21234801;28;20230;-70
2022/06/20 07:09:49;;;;;;;0.20;0.10;;;25.90;99.90;;;;;;21233515;28;20230;-72
2022/06/20 07:19:55;;;;;;;0.20;0.00;;;26.00;99.90;;;;;;21232250;28;20238;-71
2022/06/20 07:30:11;;;;;;;0.20;0.00;;;26.10;99.90;;;;;;21231197;28;20199;-71
2022/06/20 07:40:23;;;;;;;0.20;0.00;;;26.10;99.90;;;;;;21231714;28;20223;-69
2022/06/20 07:50:32;;;;;;;0.20;0.00;;;26.30;99.90;;;;;;21228796;28;20220;-70
2022/06/20 08:00:44;;;;;;;0.20;0.00;;;26.30;99.90;;;;;;21230777;28;20223;-71
2022/06/20 08:10:53;;;;;;;0.20;0.00;;;26.40;99.90;;;;;;21227553;28;20236;-71
2022/06/20 08:21:06;;;;;;;0.20;0.00;;;26.60;99.90;;;;;;21224871;28;20219;-69
2022/06/20 08:31:18;;;;;;;0.20;0.00;;;26.50;99.90;;;;;;21224848;28;20187;-68
2022/06/20 08:41:49;;;;;;;0.20;0.00;;;26.70;99.90;;;;;;21225215;28;20218;-69
2022/06/20 08:52:38;;;;;;;0.20;0.00;;;26.60;99.90;;;;;;21225006;28;20255;-69
2022/06/20 09:03:14;;;;;;;0.20;0.00;;;26.60;99.90;;;;;;21218022;28;20230;-70
2022/06/20 09:13:55;;;;;;;0.20;0.10;;;26.70;99.90;;;;;;21223328;28;20206;-69
2022/06/20 09:24:15;;;;;;;0.20;0.00;;;27.10;99.90;;;;;;21222588;28;20231;-69
2022/06/20 09:34:51;;;;;;;0.20;0.10;;;27.10;99.90;;;;;;21221247;28;20202;-68
2022/06/20 09:45:09;;;;;;;0.20;0.00;;;27.30;99.90;;;;;;21220911;28;20331;-70
2022/06/20 09:55:23;;;;;;;0.20;0.10;;;27.40;99.90;;;;;;21219443;28;20214;-69
2022/06/20 10:05:43;;;;;;;0.20;0.10;;;27.60;99.90;;;;;;21221864;28;20222;-70
2022/06/20 10:15:51;;;;;;;0.20;0.03;;;27.80;99.90;;;;;;21220673;28;20238;-68
2022/06/20 10:26:11;;;;;;;0.20;0.00;;;28.10;99.90;;;;;;21220445;28;20223;-66
2022/06/20 10:36:21;;;;;;;0.20;0.00;;;28.40;99.90;;;;;;21219160;28;20207;-68
2022/06/20 10:46:34;;;;;;;0.20;0.10;;;29.30;99.90;;;;;;21218541;28;20227;-69
2022/06/20 10:56:45;;;;;;;0.20;0.00;;;28.80;99.90;;;;;;21217893;28;20195;-69
2022/06/20 11:07:02;;;;;;;0.20;0.10;;;29.60;99.90;;;;;;21202581;28;20257;-68
2022/06/20 11:17:17;;;;;;;0.20;0.00;;;29.30;99.90;;;;;;21230670;28;20287;-64
2022/06/20 11:27:37;;;;;;;0.20;0.00;;;30.00;99.90;;;;;;21231570;28;20227;-68
2022/06/20 11:37:56;;;;;;;0.20;0.00;;;29.90;99.90;;;;;;21227962;28;20210;-69
2022/06/20 11:48:16;;;;;;;0.20;0.00;;;30.90;99.90;;;;;;21229963;28;20226;-69
2022/06/20 11:58:27;;;;;;;0.20;0.00;;;30.90;99.90;;;;;;21227307;28;20184;-69
2022/06/20 12:08:43;;;;;;;0.20;0.00;;;30.80;99.90;;;;;;21225318;28;20231;-68
2022/06/20 12:29:29;;;;;;;0.20;0.00;;;31.00;99.90;;;;;;21226954;28;20257;-68
2022/06/20 12:39:37;;;;;;;0.20;0.00;;;31.50;99.90;;;;;;21225194;28;20226;-71
2022/06/20 12:49:55;;;;;;;0.20;0.00;;;31.60;99.90;;;;;;21222344;28;20203;-69
2022/06/20 13:00:18;;;;;;;0.20;0.00;;;31.30;99.90;;;;;;21222485;28;20215;-69
2022/06/20 13:10:41;;;;;;;0.20;0.00;;;32.50;99.90;;;;;;21222313;28;20202;-69
2022/06/20 13:20:50;;;;;;;0.20;0.00;;;32.40;99.90;;;;;;21220921;28;20226;-69
2022/06/20 13:31:07;;;;;;;0.20;0.00;;;32.40;99.90;;;;;;21222285;28;20196;-70
2022/06/20 13:41:16;;;;;;;0.20;0.00;;;31.40;99.90;;;;;;21219839;28;20239;-70
2022/06/20 13:51:35;;;;;;;0.20;0.00;;;33.90;99.90;;;;;;21220568;28;20198;-69
2022/06/20 14:01:41;;;;;;;0.20;0.00;;;32.60;99.90;;;;;;21219791;28;20271;-69
2022/06/20 14:11:52;;;;;;;0.20;0.00;;;31.60;99.90;;;;;;21218145;28;20187;-69
2022/06/20 14:21:59;;;;;;;0.20;0.00;;;32.90;99.90;;;;;;21218362;28;20231;-69
2022/06/20 14:32:17;;;;;;;0.20;0.00;;;33.00;99.90;;;;;;21219156;28;20515;-70
2022/06/20 14:42:31;;;;;;;0.20;0.00;;;32.70;99.90;;;;;;21220463;28;20215;-69
2022/06/20 14:52:43;;;;;;;0.20;0.00;;;33.40;99.90;;;;;;21234225;28;20206;-69
2022/06/20 15:02:53;;;;;;;0.20;0.00;;;33.30;99.90;;;;;;21234121;28;20242;-69
2022/06/20 15:13:03;;;;;;;0.20;0.00;;;32.10;99.90;;;;;;21233232;28;20191;-69
2022/06/20 15:23:21;;;;;;;0.20;0.00;;;32.40;99.90;;;;;;21228440;28;20247;-70
2022/06/20 15:33:37;;;;;;;0.20;0.00;;;31.80;99.90;;;;;;21229113;28;20215;-69
2022/06/20 15:43:46;;;;;;;0.20;0.00;;;31.30;99.90;;;;;;21227687;28;20241;-69
2022/06/20 15:54:35;;;;;;;0.20;0.00;;;28.80;99.90;;;;;;21224326;28;20235;-69
2022/06/20 16:04:47;;;;;;;0.20;0.00;;;29.60;99.90;;;;;;21189099;28;20272;-68
2022/06/20 16:15:07;;;;;;;0.20;0.00;;;31.60;99.90;;;;;;21224219;28;20211;-68
2022/06/20 16:25:22;;;;;;;0.20;0.00;;;30.10;99.90;;;;;;21224017;28;20265;-69
2022/06/20 16:35:28;;;;;;;0.20;0.00;;;30.40;99.90;;;;;;21220096;28;20707;-70
2022/06/20 16:45:42;;;;;;;0.20;0.10;;;29.60;99.90;;;;;;21218577;28;20247;-70
2022/06/20 16:55:49;;;;;;;0.20;0.00;;;30.10;99.90;;;;;;21218353;28;20218;-70
2022/06/20 17:06:06;;;;;;;0.20;0.00;;;29.20;99.90;;;;;;21218367;28;20346;-69
2022/06/20 17:16:20;;;;;;;0.20;0.00;;;28.20;99.90;;;;;;21216811;28;20226;-67
2022/06/20 17:26:36;;;;;;;0.20;0.00;;;27.80;99.90;;;;;;21217196;28;20308;-68
2022/06/20 17:36:54;;;;;;;0.20;0.00;;;28.10;99.90;;;;;;21211337;28;20209;-70
2022/06/20 17:47:12;;;;;;;0.20;0.00;;;28.00;99.90;;;;;;21218085;28;20279;-70
2022/06/20 17:57:25;;;;;;;0.20;0.00;;;28.40;99.90;;;;;;21218764;28;20207;-69
2022/06/20 18:07:35;;;;;;;0.20;0.00;;;28.00;99.90;;;;;;21219298;28;20268;-69
2022/06/20 18:17:48;;;;;;;0.20;0.00;;;27.70;99.90;;;;;;21224436;28;20219;-70
2022/06/20 18:27:57;;;;;;;0.20;0.00;;;27.80;99.90;;;;;;21235804;28;20242;-69
2022/06/20 18:38:31;;;;;;;0.20;0.00;;;27.60;99.90;;;;;;21229695;28;20254;-71
2022/06/20 18:48:49;;;;;;;0.20;0.00;;;27.20;99.90;;;;;;21157922;28;20238;-69
2022/06/20 18:59:07;;;;;;;0.20;0.00;;;27.00;99.90;;;;;;21234913;28;20240;-69
2022/06/20 19:09:56;;;;;;;0.20;0.00;;;26.80;99.90;;;;;;21227923;28;20215;-68
2022/06/20 19:20:38;;;;;;;0.20;0.00;;;26.60;99.90;;;;;;21228230;28;20278;-71
2022/06/20 19:30:50;;;;;;;0.20;0.00;;;26.00;99.90;;;;;;21223776;28;20217;-69
2022/06/20 19:40:59;;;;;;;0.20;0.00;;;25.90;99.90;;;;;;21208520;28;20217;-69
2022/06/20 19:51:38;;;;;;;0.20;0.10;;;25.90;99.90;;;;;;21230999;28;20215;-69
2022/06/20 20:01:45;;;;;;;0.20;0.00;;;26.10;99.90;;;;;;21229070;28;20241;-70
2022/06/20 20:11:51;;;;;;;0.20;0.00;;;26.10;99.90;;;;;;21228200;28;20439;-68
2022/06/20 20:21:58;;;;;;;0.20;0.00;;;25.80;99.90;;;;;;21227576;28;20227;-69
2022/06/20 20:32:20;;;;;;;0.20;0.00;;;25.80;99.90;;;;;;21224382;28;20194;-68
2022/06/20 20:42:45;;;;;;;0.20;0.10;;;25.70;99.90;;;;;;21221310;28;20215;-68
2022/06/20 20:52:57;;;;;;;0.20;0.00;;;25.60;99.90;;;;;;21210950;28;20206;-69
2022/06/20 21:03:05;;;;;;;0.20;0.00;;;25.60;99.90;;;;;;21221702;28;20249;-69
2022/06/20 21:13:16;;;;;;;0.20;0.00;;;25.40;99.90;;;;;;21224259;28;20199;-69
2022/06/20 21:23:21;;;;;;;0.20;0.00;;;25.00;99.90;;;;;;21222260;28;20296;-68
2022/06/20 21:33:27;;;;;;;0.20;0.00;;;25.30;99.90;;;;;;21222339;28;20414;-70
2022/06/20 21:43:32;;;;;;;0.20;0.10;;;25.50;99.90;;;;;;21226209;28;20302;-69
2022/06/20 21:53:40;;;;;;;0.20;0.00;;;25.10;99.90;;;;;;21224678;28;20199;-69
2022/06/20 22:03:44;;;;;;;0.20;0.00;;;25.00;99.90;;;;;;21224620;28;20237;-69
2022/06/20 22:13:54;;;;;;;0.20;0.00;;;24.90;99.90;;;;;;21222378;28;20183;-70
2022/06/20 22:24:10;;;;;;;0.20;0.00;;;25.00;99.90;;;;;;21222361;28;20251;-69
2022/06/20 22:34:19;;;;;;;0.20;0.00;;;24.50;99.90;;;;;;21223163;28;20217;-69
2022/06/20 22:44:23;;;;;;;0.20;0.00;;;24.40;99.90;;;;;;21224127;28;20223;-68
2022/06/20 22:54:34;;;;;;;0.20;0.00;;;24.10;99.90;;;;;;21221667;28;20259;-70
2022/06/20 23:04:42;;;;;;;0.20;0.00;;;24.10;99.90;;;;;;21227349;28;20294;-70
2022/06/20 23:14:51;;;;;;;0.20;0.00;;;24.20;99.90;;;;;;21239670;28;20215;-70
2022/06/20 23:24:58;;;;;;;0.20;0.00;;;24.10;99.90;;;;;;21237210;28;20215;-68
2022/06/20 23:35:07;;;;;;;0.20;0.00;;;23.90;99.90;;;;;;21237557;28;20217;-70
2022/06/20 23:45:14;;;;;;;0.20;0.00;;;23.90;99.90;;;;;;21235135;28;20249;-69
2022/06/20 23:55:21;;;;;;;0.20;0.00;;;23.90;99.90;;;;;;21232902;28;20191;-68
